Radium, Texas
Current Conditions -  °F | °C
As of 12:58 AM on Sunday 23 Nov 2014 (Local Time) from KDYS Reporting Station
Clear Clear  
Wind Chill: 53°   Ceiling: Unl
Heat Index: 53°   Visibility: 10mi
Dew Point: 50°   Wind: 14mph
Humidity: 89%   Direction: 180°S
Pressure: 29.66"   Gusts: NA
Location:  32.755°N, 99.9177°W
Report Text: KDYS 230658Z AUTO 18012KT 10SM CLR 12/10 A2966 RMK AO2 SLP023 T01160099 $
Loading
Personal Weather Stations






























Interactive Weather Map New forecast layout! Learn more

10-Day Weather Forecast

Advertisements
Track Severe Weather on mobile